createdAt,value
2022-12-04T00:00:49.314Z,-0.86
2022-12-04T00:03:18.876Z,-1.05
2022-12-04T00:05:48.312Z,-1.17
2022-12-04T00:08:17.852Z,-1.29
2022-12-04T00:10:47.440Z,-1.35
2022-12-04T00:13:19.801Z,-1.34
2022-12-04T00:15:49.305Z,-1.33
2022-12-04T00:18:18.956Z,-1.38
2022-12-04T00:20:48.467Z,-1.42
2022-12-04T00:23:17.936Z,-1.40
2022-12-04T00:25:48.868Z,-1.36
2022-12-04T00:28:21.858Z,-1.35
2022-12-04T00:30:51.257Z,-1.32
2022-12-04T00:33:20.727Z,-1.37
2022-12-04T00:35:50.273Z,-1.32
2022-12-04T00:38:19.730Z,-1.34
2022-12-04T00:40:52.444Z,-1.33
2022-12-04T00:43:25.613Z,-1.30
2022-12-04T00:45:55.229Z,-1.30
2022-12-04T00:48:25.133Z,-1.23
2022-12-04T00:50:55.544Z,-1.23
2022-12-04T00:53:25.024Z,-1.22
2022-12-04T00:55:54.520Z,-1.20
2022-12-04T00:58:26.984Z,-1.29
2022-12-04T01:01:04.799Z,-1.24
2022-12-04T01:03:34.587Z,-1.30
2022-12-04T01:06:04.454Z,-1.22
2022-12-04T01:08:35.982Z,-1.25
2022-12-04T01:11:08.443Z,-1.26
2022-12-04T01:13:40.476Z,-1.28
2022-12-04T01:16:10.155Z,-1.31
2022-12-04T01:18:39.641Z,-1.41
2022-12-04T01:21:09.255Z,-1.37
2022-12-04T01:23:38.830Z,-1.32
2022-12-04T01:26:08.644Z,-1.30
2022-12-04T01:28:40.771Z,-1.36
2022-12-04T01:31:11.641Z,-1.35
2022-12-04T01:33:41.440Z,-1.38
2022-12-04T01:36:12.916Z,-1.35
2022-12-04T01:38:42.480Z,-1.33
2022-12-04T01:41:14.191Z,-1.32
2022-12-04T01:43:46.516Z,-1.30
2022-12-04T01:46:16.124Z,-1.36
2022-12-04T01:48:48.451Z,-1.42
2022-12-04T01:51:20.517Z,-1.41
2022-12-04T01:53:53.370Z,-1.41
2022-12-04T01:56:23.832Z,-1.35
2022-12-04T01:58:58.039Z,-1.36
2022-12-04T02:01:29.127Z,-1.38
2022-12-04T02:03:58.686Z,-1.31
2022-12-04T02:06:28.169Z,-1.29
2022-12-04T02:08:57.664Z,-1.33
2022-12-04T02:11:32.749Z,-1.29
2022-12-04T02:14:10.955Z,-1.31
2022-12-04T02:16:43.810Z,-1.27
2022-12-04T02:19:36.796Z,-1.30
2022-12-04T02:22:11.859Z,-1.24
2022-12-04T02:24:50.628Z,-1.25
2022-12-04T02:27:32.441Z,-1.32
2022-12-04T02:30:07.392Z,-1.32
2022-12-04T02:32:42.538Z,-1.30
2022-12-04T02:35:17.486Z,-1.35
2022-12-04T02:37:48.716Z,-1.38
2022-12-04T02:40:25.255Z,-1.31
2022-12-04T02:42:58.667Z,-1.31
2022-12-04T02:45:33.188Z,-1.30
2022-12-04T02:48:04.336Z,-1.29
2022-12-04T02:50:35.551Z,-1.29
2022-12-04T02:53:08.767Z,-1.26
2022-12-04T02:55:40.827Z,-1.27
2022-12-04T02:58:14.462Z,-1.34
2022-12-04T03:00:48.380Z,-1.33
2022-12-04T03:03:21.678Z,-1.29
2022-12-04T03:05:56.757Z,-1.26
2022-12-04T03:08:29.389Z,-1.27
2022-12-04T03:11:01.063Z,-1.23
2022-12-04T03:13:34.262Z,-1.28
2022-12-04T03:16:10.699Z,-1.20
2022-12-04T03:18:43.184Z,-1.22
2022-12-04T03:21:16.842Z,-1.27
2022-12-04T03:23:49.079Z,-1.28
2022-12-04T03:26:22.452Z,-1.31
2022-12-04T03:28:57.211Z,-1.22
2022-12-04T03:31:35.543Z,-1.24
2022-12-04T03:34:06.671Z,-1.12
2022-12-04T03:36:39.621Z,-1.12
2022-12-04T03:39:15.632Z,-1.12
2022-12-04T03:41:57.820Z,-1.12
2022-12-04T03:44:30.261Z,-1.07
2022-12-04T03:47:07.691Z,-1.05
2022-12-04T03:49:45.077Z,-1.15
2022-12-04T03:52:18.218Z,-1.16
2022-12-04T03:54:50.620Z,-1.14
2022-12-04T03:57:23.152Z,-1.15
2022-12-04T03:59:56.293Z,-1.15
2022-12-04T04:02:31.603Z,-1.12
2022-12-04T04:05:02.327Z,-1.20
2022-12-04T04:07:36.066Z,-1.27
2022-12-04T04:10:08.794Z,-1.26
2022-12-04T04:12:41.054Z,-1.25
2022-12-04T04:15:31.067Z,-1.20
2022-12-04T04:18:17.044Z,-1.23
2022-12-04T04:21:00.542Z,-1.24
2022-12-04T04:23:45.418Z,-1.27
2022-12-04T04:26:15.792Z,-1.25
2022-12-04T04:28:45.616Z,-1.19
2022-12-04T04:31:21.062Z,-1.18
2022-12-04T04:33:56.925Z,-1.17
2022-12-04T04:36:29.922Z,-1.22
2022-12-04T04:39:03.815Z,-1.19
2022-12-04T04:41:39.685Z,-1.20
2022-12-04T04:44:15.522Z,0.49
2022-12-04T04:46:49.386Z,0.50
2022-12-04T04:49:22.793Z,0.85
2022-12-04T04:51:52.251Z,1.02
2022-12-04T04:54:21.970Z,1.58
2022-12-04T04:56:51.438Z,1.56
2022-12-04T04:59:20.807Z,1.09
2022-12-04T05:01:50.830Z,0.97
2022-12-04T05:04:22.835Z,2.04
2022-12-04T05:06:52.264Z,1.80
2022-12-04T05:09:21.659Z,1.74
2022-12-04T05:11:51.107Z,1.19
2022-12-04T05:14:20.472Z,1.41
2022-12-04T05:16:49.914Z,0.74
2022-12-04T05:19:34.408Z,0.22
2022-12-04T05:22:03.812Z,0.10
2022-12-04T05:24:33.186Z,-0.11
2022-12-04T05:27:02.652Z,-0.05
2022-12-04T05:29:35.857Z,0.05
2022-12-04T05:32:05.791Z,-0.15
2022-12-04T05:34:37.841Z,-0.11
2022-12-04T05:37:07.228Z,-0.07
2022-12-04T05:39:36.959Z,-0.23
2022-12-04T05:42:06.582Z,-0.09
2022-12-04T05:44:36.133Z,-0.10
2022-12-04T05:47:05.670Z,-0.12
2022-12-04T05:49:38.211Z,-0.22
2022-12-04T05:52:10.599Z,-0.02
2022-12-04T05:54:40.319Z,-0.20
2022-12-04T05:57:09.831Z,-0.24
2022-12-04T05:59:39.427Z,-0.37
2022-12-04T06:02:08.922Z,-0.27
2022-12-04T06:04:42.214Z,-0.25
2022-12-04T06:07:12.135Z,-0.08
2022-12-04T06:09:41.519Z,-0.12
2022-12-04T06:12:11.045Z,-0.21
2022-12-04T06:14:40.625Z,-0.35
2022-12-04T06:17:10.075Z,0.03
2022-12-04T06:19:42.446Z,-0.10
2022-12-04T06:22:11.875Z,-0.22
2022-12-04T06:24:41.564Z,-0.30
2022-12-04T06:27:27.390Z,-0.16
2022-12-04T06:29:57.819Z,-0.08
2022-12-04T06:32:27.532Z,-0.19
2022-12-04T06:34:59.677Z,-0.11
2022-12-04T06:37:29.107Z,-0.51
2022-12-04T06:39:58.740Z,-0.73
2022-12-04T06:42:28.431Z,-0.85
2022-12-04T06:44:57.868Z,-0.87
2022-12-04T06:47:27.220Z,-0.84
2022-12-04T06:49:59.440Z,-0.88
2022-12-04T06:52:28.905Z,-0.91
2022-12-04T06:54:59.097Z,-0.91
2022-12-04T06:57:28.496Z,-0.90
2022-12-04T06:59:58.214Z,-0.86
2022-12-04T07:02:27.856Z,-1.02
2022-12-04T07:05:00.176Z,-0.96
2022-12-04T07:07:29.574Z,-0.87
2022-12-04T07:09:59.040Z,-0.89
2022-12-04T07:12:28.451Z,-0.93
2022-12-04T07:14:57.857Z,-0.98
2022-12-04T07:17:27.251Z,-0.92
2022-12-04T07:19:56.886Z,-0.88
2022-12-04T07:22:29.245Z,-0.76
2022-12-04T07:24:58.634Z,-0.51
2022-12-04T07:27:28.021Z,-0.36
2022-12-04T07:29:57.739Z,-0.45
2022-12-04T07:32:27.338Z,-0.62
2022-12-04T07:34:56.792Z,-0.64
2022-12-04T07:37:28.844Z,-0.71
2022-12-04T07:39:58.644Z,-0.76
2022-12-04T07:42:28.148Z,-0.77
2022-12-04T07:44:57.546Z,-0.77
2022-12-04T07:47:26.943Z,-0.87
2022-12-04T07:49:56.500Z,-0.75
2022-12-04T07:52:25.984Z,-0.66
2022-12-04T07:54:57.958Z,-0.59
2022-12-04T07:57:27.414Z,-0.56
2022-12-04T07:59:57.144Z,-0.64
2022-12-04T08:02:26.831Z,-0.59
2022-12-04T08:04:56.326Z,-0.60
2022-12-04T08:07:25.753Z,-0.57
2022-12-04T08:09:57.940Z,-0.56
2022-12-04T08:12:27.629Z,-0.58
2022-12-04T08:14:56.988Z,-0.51
2022-12-04T08:17:26.504Z,-0.56
2022-12-04T08:19:56.175Z,-0.47
2022-12-04T08:22:25.880Z,-0.45
2022-12-04T08:24:57.987Z,-0.41
2022-12-04T08:27:27.392Z,-0.44
2022-12-04T08:29:57.022Z,-0.45
2022-12-04T08:32:26.723Z,-0.47
2022-12-04T08:34:56.221Z,-0.41
2022-12-04T08:37:27.590Z,-0.37
2022-12-04T08:39:59.559Z,-0.29
2022-12-04T08:42:28.970Z,-0.27
2022-12-04T08:44:58.384Z,-0.18
2022-12-04T08:47:27.899Z,0.10
2022-12-04T08:49:57.620Z,0.33
2022-12-04T08:52:27.143Z,0.36
2022-12-04T08:54:59.461Z,0.32
2022-12-04T08:57:29.004Z,0.28
2022-12-04T08:59:58.691Z,0.18
2022-12-04T09:02:28.348Z,0.17
2022-12-04T09:04:57.813Z,0.23
2022-12-04T09:07:27.281Z,0.16
2022-12-04T09:09:59.496Z,0.07
2022-12-04T09:12:29.076Z,0.05
2022-12-04T09:14:58.719Z,0.07
2022-12-04T09:17:28.169Z,0.18
2022-12-04T09:20:00.902Z,0.21
2022-12-04T09:22:57.782Z,0.24
2022-12-04T09:25:25.722Z,0.20
2022-12-04T09:27:55.126Z,0.12
2022-12-04T09:30:24.494Z,0.18
2022-12-04T09:32:53.887Z,0.26
2022-12-04T09:35:23.376Z,0.26
2022-12-04T09:37:52.791Z,0.27
2022-12-04T09:40:36.904Z,0.35
2022-12-04T09:43:13.882Z,0.39
2022-12-04T09:45:45.775Z,0.43
2022-12-04T09:48:15.408Z,0.37
2022-12-04T09:50:46.454Z,0.36
2022-12-04T09:53:19.766Z,0.46
2022-12-04T09:55:57.695Z,0.42
2022-12-04T09:58:31.731Z,0.45
2022-12-04T10:01:01.522Z,0.47
2022-12-04T10:03:32.260Z,0.57
2022-12-04T10:06:06.167Z,0.62
2022-12-04T10:08:38.322Z,0.64
2022-12-04T10:11:15.829Z,0.71
2022-12-04T10:13:58.693Z,0.62
2022-12-04T10:16:31.441Z,0.61
2022-12-04T10:19:06.627Z,0.67
2022-12-04T10:21:43.133Z,0.66
2022-12-04T10:24:19.958Z,0.67
2022-12-04T10:26:52.307Z,0.64
2022-12-04T10:29:24.536Z,0.77
2022-12-04T10:31:57.087Z,0.86
2022-12-04T10:34:28.856Z,1.01
2022-12-04T10:37:02.054Z,1.06
2022-12-04T10:39:37.152Z,1.14
2022-12-04T10:42:26.639Z,1.01
2022-12-04T10:44:56.712Z,1.07
2022-12-04T10:47:26.725Z,1.08
2022-12-04T10:50:01.716Z,0.98
2022-12-04T10:52:31.189Z,0.99
2022-12-04T10:55:01.744Z,1.01
2022-12-04T10:57:41.795Z,1.03
2022-12-04T11:00:27.425Z,1.04
2022-12-04T11:02:59.048Z,1.02
2022-12-04T11:05:32.056Z,1.02
2022-12-04T11:08:03.178Z,1.07
2022-12-04T11:10:37.112Z,1.10
2022-12-04T11:13:17.259Z,1.35
2022-12-04T11:15:48.112Z,1.62
2022-12-04T11:18:20.990Z,1.70
2022-12-04T11:20:55.517Z,1.78
2022-12-04T11:23:25.325Z,1.65
2022-12-04T11:26:02.075Z,1.88
2022-12-04T11:28:42.714Z,1.78
2022-12-04T11:31:19.360Z,1.80
2022-12-04T11:33:50.809Z,1.86
2022-12-04T11:36:24.885Z,1.75
2022-12-04T11:38:54.687Z,1.73
2022-12-04T11:41:29.366Z,1.65
2022-12-04T11:44:02.094Z,1.38
2022-12-04T11:46:34.172Z,1.49
2022-12-04T11:49:05.318Z,1.51
2022-12-04T11:51:47.301Z,1.55
2022-12-04T11:54:24.243Z,1.48
2022-12-04T11:56:59.927Z,1.57
2022-12-04T11:59:51.235Z,1.66
2022-12-04T12:02:37.386Z,1.57
2022-12-04T12:05:31.487Z,1.61
2022-12-04T12:08:04.989Z,1.64
2022-12-04T12:10:44.395Z,1.65
2022-12-04T12:13:21.763Z,1.67
2022-12-04T12:16:00.830Z,1.64
2022-12-04T12:18:44.684Z,1.72
2022-12-04T12:21:19.331Z,1.74
2022-12-04T12:23:57.645Z,1.82
2022-12-04T12:26:30.157Z,1.77
2022-12-04T12:29:17.303Z,1.77
2022-12-04T12:32:02.574Z,1.79
2022-12-04T12:34:36.953Z,1.78
2022-12-04T12:37:16.298Z,1.81
2022-12-04T12:39:51.238Z,1.86
2022-12-04T12:42:24.559Z,1.87
2022-12-04T12:44:58.966Z,1.83
2022-12-04T12:47:33.766Z,1.86
2022-12-04T12:50:06.378Z,1.84
2022-12-04T12:52:38.839Z,1.89
2022-12-04T12:55:17.913Z,1.94
2022-12-04T12:57:50.502Z,1.96
2022-12-04T13:00:22.882Z,2.03
2022-12-04T13:02:58.805Z,2.13
2022-12-04T13:05:32.436Z,2.15
2022-12-04T13:08:06.061Z,2.24
2022-12-04T13:10:39.109Z,2.37
2022-12-04T13:13:11.322Z,2.41
2022-12-04T13:15:44.683Z,2.37
2022-12-04T13:18:24.695Z,2.47
2022-12-04T13:20:56.408Z,2.46
2022-12-04T13:23:40.217Z,2.41
2022-12-04T13:26:13.301Z,2.42
2022-12-04T13:28:52.392Z,2.53
2022-12-04T13:31:28.879Z,2.34
2022-12-04T13:34:25.303Z,2.25
2022-12-04T13:37:15.088Z,2.50
2022-12-04T13:40:18.976Z,2.54
2022-12-04T13:42:48.837Z,2.23
2022-12-04T13:45:29.760Z,2.19
2022-12-04T13:48:01.030Z,2.14
2022-12-04T13:50:35.099Z,2.13
2022-12-04T13:53:04.728Z,2.12
2022-12-04T13:55:36.176Z,2.22
2022-12-04T13:58:08.360Z,2.21
2022-12-04T14:00:39.247Z,2.15
2022-12-04T14:03:10.329Z,2.17
2022-12-04T14:05:46.267Z,2.18
2022-12-04T14:08:25.999Z,2.24
2022-12-04T14:11:03.805Z,2.26
2022-12-04T14:13:44.587Z,2.26
2022-12-04T14:16:23.125Z,2.27
2022-12-04T14:18:54.946Z,2.31
2022-12-04T14:21:27.233Z,2.31
2022-12-04T14:23:56.712Z,2.38
2022-12-04T14:27:10.570Z,2.40
2022-12-04T14:29:34.076Z,2.42
2022-12-04T14:32:10.554Z,2.73
2022-12-04T14:34:40.529Z,2.69
2022-12-04T14:37:21.879Z,2.77
2022-12-04T14:39:54.473Z,2.67
2022-12-04T14:42:26.663Z,2.73
2022-12-04T14:44:58.949Z,2.82
2022-12-04T14:47:37.691Z,2.85
2022-12-04T14:50:31.086Z,2.93
2022-12-04T14:53:09.231Z,3.18
2022-12-04T14:55:43.956Z,3.04
2022-12-04T14:58:32.200Z,2.86
2022-12-04T15:01:03.213Z,2.75
2022-12-04T15:03:34.651Z,2.69
2022-12-04T15:06:05.054Z,2.70
2022-12-04T15:08:39.574Z,2.71
2022-12-04T15:11:21.809Z,2.73
2022-12-04T15:13:51.338Z,2.73
2022-12-04T15:16:22.653Z,2.63
2022-12-04T15:18:59.105Z,2.62
2022-12-04T15:21:37.345Z,2.60
2022-12-04T15:24:14.515Z,2.62
2022-12-04T15:26:44.120Z,2.64
2022-12-04T15:29:19.411Z,2.66
2022-12-04T15:31:56.524Z,2.67
2022-12-04T15:34:28.203Z,2.65
2022-12-04T15:37:03.079Z,2.65
2022-12-04T15:39:38.102Z,2.65
2022-12-04T15:42:09.337Z,2.65
2022-12-04T15:44:39.483Z,2.70
2022-12-04T15:47:20.397Z,2.70
2022-12-04T15:49:49.869Z,2.69
2022-12-04T15:52:21.678Z,2.75
2022-12-04T15:54:57.171Z,2.88
2022-12-04T15:57:30.256Z,2.89
2022-12-04T16:00:02.881Z,3.04
2022-12-04T16:02:34.661Z,2.94
2022-12-04T16:05:14.224Z,3.06
2022-12-04T16:07:51.622Z,3.07
2022-12-04T16:10:26.406Z,3.05
2022-12-04T16:12:56.589Z,3.16
2022-12-04T16:15:27.616Z,3.18
2022-12-04T16:17:57.104Z,3.00
2022-12-04T16:20:26.656Z,2.91
2022-12-04T16:22:57.202Z,2.83
2022-12-04T16:25:31.601Z,2.86
2022-12-04T16:28:01.110Z,2.89
2022-12-04T16:30:32.168Z,2.88
2022-12-04T16:33:01.764Z,2.88
2022-12-04T16:35:31.637Z,2.89
2022-12-04T16:38:01.179Z,2.94
2022-12-04T16:40:33.281Z,2.96
2022-12-04T16:43:02.752Z,2.99
2022-12-04T16:45:34.788Z,2.99
2022-12-04T16:48:04.401Z,2.99
2022-12-04T16:50:33.916Z,3.00
2022-12-04T16:53:03.454Z,2.97
2022-12-04T16:55:38.592Z,2.94
2022-12-04T16:58:08.711Z,3.01
2022-12-04T17:00:39.241Z,3.11
2022-12-04T17:03:10.406Z,3.16
2022-12-04T17:05:39.884Z,3.13
2022-12-04T17:08:09.459Z,3.24
2022-12-04T17:10:41.610Z,3.35
2022-12-04T17:13:11.199Z,3.51
2022-12-04T17:15:40.789Z,3.54
2022-12-04T17:18:13.889Z,3.43
2022-12-04T17:20:46.865Z,3.42
2022-12-04T17:23:16.294Z,3.37
2022-12-04T17:25:48.308Z,3.23
2022-12-04T17:28:17.831Z,3.16
2022-12-04T17:30:48.616Z,3.19
2022-12-04T17:33:18.240Z,3.18
2022-12-04T17:35:47.729Z,3.10
2022-12-04T17:38:17.326Z,3.08
2022-12-04T17:41:00.621Z,3.09
2022-12-04T17:43:30.948Z,3.06
2022-12-04T17:46:00.538Z,3.03
2022-12-04T17:48:30.160Z,3.03
2022-12-04T17:51:07.531Z,3.03
2022-12-04T17:53:37.099Z,3.19
2022-12-04T17:56:11.974Z,3.27
2022-12-04T17:58:41.688Z,3.37
2022-12-04T18:01:13.064Z,3.37
2022-12-04T18:03:43.915Z,3.34
2022-12-04T18:06:14.833Z,3.35
2022-12-04T18:08:49.768Z,3.48
2022-12-04T18:11:23.386Z,3.47
2022-12-04T18:13:57.263Z,3.52
2022-12-04T18:16:27.253Z,3.46
2022-12-04T18:18:57.041Z,3.51
2022-12-04T18:21:26.878Z,3.35
2022-12-04T18:23:59.273Z,3.24
2022-12-04T18:26:35.378Z,3.21
2022-12-04T18:29:05.419Z,3.22
2022-12-04T18:31:35.478Z,3.20
2022-12-04T18:34:04.935Z,3.19
2022-12-04T18:36:35.279Z,3.15
2022-12-04T18:39:08.305Z,3.18
2022-12-04T18:41:40.593Z,3.18
2022-12-04T18:44:10.073Z,3.18
2022-12-04T18:46:39.883Z,3.14
2022-12-04T18:49:09.769Z,3.16
2022-12-04T18:51:40.789Z,3.19
2022-12-04T18:54:14.072Z,3.23
2022-12-04T18:56:46.576Z,3.22
2022-12-04T18:59:17.615Z,3.20
2022-12-04T19:01:47.099Z,3.17
2022-12-04T19:04:18.367Z,3.13
2022-12-04T19:06:50.189Z,3.14
2022-12-04T19:09:35.421Z,3.14
2022-12-04T19:12:14.641Z,3.23
2022-12-04T19:14:44.252Z,4.34
2022-12-04T19:17:13.708Z,4.56
2022-12-04T19:19:43.129Z,5.00
2022-12-04T19:22:12.599Z,5.33
2022-12-04T19:24:42.539Z,5.25
2022-12-04T19:27:14.666Z,5.27
2022-12-04T19:29:45.611Z,5.29
2022-12-04T19:32:15.396Z,5.18
2022-12-04T19:34:44.907Z,5.33
2022-12-04T19:37:14.483Z,5.26
2022-12-04T19:39:44.253Z,4.63
2022-12-04T19:42:16.315Z,4.35
2022-12-04T19:44:48.790Z,4.25
2022-12-04T19:47:18.575Z,3.99
2022-12-04T19:49:48.047Z,3.84
2022-12-04T19:52:17.906Z,4.02
2022-12-04T19:54:47.429Z,4.12
2022-12-04T19:57:19.453Z,3.98
2022-12-04T19:59:48.928Z,3.81
2022-12-04T20:02:19.706Z,3.89
2022-12-04T20:04:49.304Z,3.82
2022-12-04T20:07:19.453Z,3.76
2022-12-04T20:09:52.381Z,3.90
2022-12-04T20:12:24.878Z,3.86
2022-12-04T20:14:54.486Z,3.81
2022-12-04T20:17:23.940Z,3.73
2022-12-04T20:19:53.379Z,3.58
2022-12-04T20:22:22.963Z,3.67
2022-12-04T20:24:52.432Z,3.62
2022-12-04T20:27:24.641Z,3.60
2022-12-04T20:29:54.254Z,3.58
2022-12-04T20:32:23.815Z,3.49
2022-12-04T20:34:53.321Z,3.46
2022-12-04T20:37:22.827Z,3.52
2022-12-04T20:39:52.368Z,3.54
2022-12-04T20:42:27.461Z,3.46
2022-12-04T20:45:01.267Z,3.37
2022-12-04T20:47:31.677Z,3.38
2022-12-04T20:50:01.367Z,3.33
2022-12-04T20:52:30.791Z,3.23
2022-12-04T20:55:00.188Z,3.20
2022-12-04T20:57:32.972Z,3.25
2022-12-04T21:00:02.479Z,3.24
2022-12-04T21:02:31.948Z,3.24
2022-12-04T21:05:01.536Z,3.14
2022-12-04T21:07:31.106Z,3.12
2022-12-04T21:10:01.039Z,3.17
2022-12-04T21:12:45.650Z,3.14
2022-12-04T21:15:27.380Z,3.10
2022-12-04T21:17:56.809Z,3.07
2022-12-04T21:20:26.388Z,3.12
2022-12-04T21:22:55.927Z,3.16
2022-12-04T21:25:26.426Z,3.13
2022-12-04T21:27:58.528Z,3.08
2022-12-04T21:30:27.995Z,3.10
2022-12-04T21:32:57.408Z,3.08
2022-12-04T21:35:28.135Z,3.06
2022-12-04T21:37:57.660Z,3.06
2022-12-04T21:40:27.206Z,3.09
2022-12-04T21:42:59.248Z,3.07
2022-12-04T21:45:28.784Z,3.06
2022-12-04T21:47:58.617Z,3.12
2022-12-04T21:50:28.114Z,3.09
2022-12-04T21:52:57.565Z,3.07
2022-12-04T21:55:27.122Z,3.08
2022-12-04T21:57:59.159Z,3.05
2022-12-04T22:00:28.652Z,3.07
2022-12-04T22:02:59.593Z,3.10
2022-12-04T22:05:29.081Z,3.04
2022-12-04T22:07:58.655Z,3.06
2022-12-04T22:10:28.455Z,3.24
2022-12-04T22:13:00.520Z,3.44
2022-12-04T22:15:29.991Z,3.44
2022-12-04T22:17:59.448Z,3.43
2022-12-04T22:20:29.002Z,3.54
2022-12-04T22:22:58.507Z,3.52
2022-12-04T22:25:28.035Z,3.45
2022-12-04T22:28:00.587Z,3.49
2022-12-04T22:30:30.606Z,3.47
2022-12-04T22:33:00.114Z,3.48
2022-12-04T22:35:29.609Z,3.43
2022-12-04T22:37:59.108Z,3.50
2022-12-04T22:40:28.734Z,3.49
2022-12-04T22:43:00.819Z,3.56
2022-12-04T22:45:30.295Z,3.51
2022-12-04T22:47:59.767Z,3.46
2022-12-04T22:50:29.279Z,3.60
2022-12-04T22:52:58.906Z,3.46
2022-12-04T22:55:28.511Z,3.40
2022-12-04T22:58:00.682Z,3.30
2022-12-04T23:00:30.213Z,3.27
2022-12-04T23:02:59.756Z,3.24
2022-12-04T23:05:29.330Z,3.22
2022-12-04T23:07:58.872Z,3.18
2022-12-04T23:10:28.403Z,3.18
2022-12-04T23:13:00.567Z,3.19
2022-12-04T23:15:30.328Z,3.20
2022-12-04T23:17:59.844Z,3.22
2022-12-04T23:20:29.326Z,3.26
2022-12-04T23:22:59.302Z,3.27
2022-12-04T23:25:28.897Z,3.25
2022-12-04T23:28:00.950Z,3.23
2022-12-04T23:30:32.689Z,3.28
2022-12-04T23:33:04.578Z,3.28
2022-12-04T23:35:34.060Z,3.29
2022-12-04T23:38:03.536Z,3.26
2022-12-04T23:40:33.057Z,3.24
2022-12-04T23:43:05.086Z,3.26
2022-12-04T23:45:34.619Z,3.27
2022-12-04T23:48:04.115Z,3.23
2022-12-04T23:50:33.816Z,3.23
2022-12-04T23:53:03.350Z,3.20
2022-12-04T23:55:34.663Z,3.19
2022-12-04T23:58:07.140Z,3.18
